Time;durP1;ratioP1;P1;durP2;ratioP2;P2;SDS_P1;SDS_P2;PMS_P1;PMS_P2;Temp;Humidity;BMP_temperature;BMP_pressure;BME280_temperature;BME280_humidity;BME280_pressure;Samples;Min_cycle;Max_cycle;Signal;HPM_P1;HPM_P2
2023/03/07 00:00:32;;;;;;;9.43;2.53;;;;;;;;;;2072110;28;20030;-82
2023/03/07 00:01:51;;;;;;;17.65;2.58;;;;;;;;;;2076623;28;20029;-84
2023/03/07 00:03:11;;;;;;;7.55;3.05;;;;;;;;;;2075670;28;20038;-82
2023/03/07 00:04:32;;;;;;;10.30;2.63;;;;;;;;;;2074641;28;20026;-82
2023/03/07 00:06:02;;;;;;;16.98;2.25;;;;;;;;;;2073651;28;20041;-82
2023/03/07 00:07:21;;;;;;;14.80;3.00;;;;;;;;;;2073211;28;20029;-81
2023/03/07 00:08:42;;;;;;;8.73;2.35;;;;;;;;;;2079012;28;20037;-81
2023/03/07 00:10:01;;;;;;;10.50;3.10;;;;;;;;;;2078763;28;20037;-83
2023/03/07 00:11:20;;;;;;;21.92;2.92;;;;;;;;;;2082593;28;20061;-83
2023/03/07 00:12:38;;;;;;;8.30;2.42;;;;;;;;;;2081608;28;20029;-81
2023/03/07 00:13:57;;;;;;;10.45;2.83;;;;;;;;;;2075133;28;20033;-82
2023/03/07 00:15:17;;;;;;;11.52;2.55;;;;;;;;;;2071343;28;20038;-81
2023/03/07 00:16:35;;;;;;;18.15;3.05;;;;;;;;;;2070593;28;20061;-81
2023/03/07 00:17:55;;;;;;;18.88;3.13;;;;;;;;;;2075383;28;20022;-81
2023/03/07 00:19:14;;;;;;;8.20;2.00;;;;;;;;;;2077106;28;20022;-82
2023/03/07 00:20:33;;;;;;;11.02;2.92;;;;;;;;;;2078887;28;20029;-80
2023/03/07 00:21:52;;;;;;;15.23;3.78;;;;;;;;;;2078457;28;20045;-83
2023/03/07 00:23:11;;;;;;;12.88;3.00;;;;;;;;;;2071044;28;20455;-81
2023/03/07 00:24:29;;;;;;;18.75;2.45;;;;;;;;;;2071706;28;20030;-81
2023/03/07 00:25:59;;;;;;;11.80;2.80;;;;;;;;;;2070620;28;20030;-81
2023/03/07 00:27:18;;;;;;;10.35;2.53;;;;;;;;;;2075034;28;20038;-83
2023/03/07 00:28:37;;;;;;;15.73;2.63;;;;;;;;;;2071702;28;20054;-81
2023/03/07 00:29:57;;;;;;;13.30;3.00;;;;;;;;;;2065361;28;20852;-81
2023/03/07 00:31:16;;;;;;;9.43;3.20;;;;;;;;;;2071155;28;20033;-81
2023/03/07 00:32:35;;;;;;;18.50;3.60;;;;;;;;;;2068190;28;20465;-82
2023/03/07 00:33:54;;;;;;;13.07;4.93;;;;;;;;;;2070458;28;20453;-82
2023/03/07 00:35:13;;;;;;;16.63;4.95;;;;;;;;;;2078026;28;20446;-81
2023/03/07 00:36:32;;;;;;;14.30;5.82;;;;;;;;;;2071970;28;20029;-81
2023/03/07 00:37:51;;;;;;;12.63;5.40;;;;;;;;;;2071333;28;20030;-81
2023/03/07 00:39:10;;;;;;;12.10;4.60;;;;;;;;;;2069273;28;20499;-82
2023/03/07 00:40:30;;;;;;;7.35;4.82;;;;;;;;;;2068433;28;20491;-81
2023/03/07 00:41:49;;;;;;;7.93;4.30;;;;;;;;;;2076800;28;20037;-82
2023/03/07 00:43:09;;;;;;;9.35;5.30;;;;;;;;;;2075212;28;20037;-81
2023/03/07 00:44:31;;;;;;;7.88;5.25;;;;;;;;;;2071418;28;20101;-81
2023/03/07 00:45:50;;;;;;;6.88;4.78;;;;;;;;;;2074149;28;20438;-81
2023/03/07 00:47:09;;;;;;;7.50;4.50;;;;;;;;;;2070417;28;20097;-81
2023/03/07 00:48:28;;;;;;;9.00;5.25;;;;;;;;;;2067395;28;20530;-81
2023/03/07 00:49:47;;;;;;;12.63;5.25;;;;;;;;;;2068126;28;20030;-82
2023/03/07 00:51:07;;;;;;;10.65;4.38;;;;;;;;;;2075795;28;20026;-81
2023/03/07 00:52:26;;;;;;;18.70;5.78;;;;;;;;;;2071292;28;20022;-83
2023/03/07 00:53:45;;;;;;;10.35;5.40;;;;;;;;;;2069716;28;20030;-82
2023/03/07 00:55:04;;;;;;;10.10;5.03;;;;;;;;;;2071882;28;20033;-81
2023/03/07 00:56:24;;;;;;;8.63;5.20;;;;;;;;;;2073521;28;20021;-81
2023/03/07 00:57:43;;;;;;;12.65;5.90;;;;;;;;;;2071863;28;20506;-82
2023/03/07 00:59:02;;;;;;;11.48;5.18;;;;;;;;;;2069862;28;20038;-81
2023/03/07 01:00:21;;;;;;;12.70;5.88;;;;;;;;;;2066085;28;20033;-81
2023/03/07 01:01:40;;;;;;;14.40;5.65;;;;;;;;;;2067812;28;20864;-81
2023/03/07 01:03:01;;;;;;;11.23;5.90;;;;;;;;;;2076516;28;20037;-81
2023/03/07 01:04:19;;;;;;;10.43;5.57;;;;;;;;;;2074277;28;20407;-82
2023/03/07 01:05:39;;;;;;;8.23;5.50;;;;;;;;;;2079980;28;20025;-81
2023/03/07 01:06:58;;;;;;;8.70;5.50;;;;;;;;;;2071731;28;20031;-84
2023/03/07 01:08:18;;;;;;;9.85;5.95;;;;;;;;;;2069656;28;20033;-82
2023/03/07 01:09:37;;;;;;;8.00;5.72;;;;;;;;;;2067009;28;20061;-81
2023/03/07 01:10:57;;;;;;;8.52;5.15;;;;;;;;;;2061359;28;20030;-81
2023/03/07 01:12:16;;;;;;;10.45;5.65;;;;;;;;;;2061659;28;20026;-86
2023/03/07 01:13:35;;;;;;;12.98;6.28;;;;;;;;;;2069256;28;20394;-82
2023/03/07 01:14:54;;;;;;;11.77;6.15;;;;;;;;;;2071248;28;20121;-81
2023/03/07 01:16:18;;;;;;;8.38;5.32;;;;;;;;;;2079471;28;20034;-80
2023/03/07 01:17:37;;;;;;;25.15;6.32;;;;;;;;;;2074237;28;20026;-81
2023/03/07 01:18:57;;;;;;;12.70;5.40;;;;;;;;;;2078246;28;20462;-80
2023/03/07 01:20:16;;;;;;;9.07;5.60;;;;;;;;;;2071200;28;20030;-81
2023/03/07 01:21:37;;;;;;;14.90;6.38;;;;;;;;;;2070255;28;20109;-81
2023/03/07 01:22:56;;;;;;;10.88;5.40;;;;;;;;;;2071609;28;20038;-81
2023/03/07 01:24:15;;;;;;;10.23;6.18;;;;;;;;;;2071543;28;20034;-81
2023/03/07 01:25:38;;;;;;;13.50;6.85;;;;;;;;;;2068183;28;20026;-80
2023/03/07 01:26:57;;;;;;;11.85;6.20;;;;;;;;;;2070491;28;20164;-81
2023/03/07 01:28:16;;;;;;;10.00;5.85;;;;;;;;;;2077546;28;20029;-82
2023/03/07 01:29:35;;;;;;;14.02;7.20;;;;;;;;;;2069879;28;20045;-82
2023/03/07 01:30:57;;;;;;;17.70;5.93;;;;;;;;;;2068018;28;21388;-80
2023/03/07 01:32:17;;;;;;;;;;;;;;;;;;2072228;28;20022;-83
2023/03/07 01:33:36;;;;;;;10.15;6.30;;;;;;;;;;2072900;28;19913;-82
2023/03/07 01:34:55;;;;;;;11.93;6.78;;;;;;;;;;2071677;28;20495;-80
2023/03/07 01:36:18;;;;;;;15.93;6.32;;;;;;;;;;2079394;28;20030;-81
2023/03/07 01:37:37;;;;;;;14.63;6.18;;;;;;;;;;2070422;28;20022;-81
2023/03/07 01:39:01;;;;;;;14.55;7.10;;;;;;;;;;2076057;28;20045;-83
2023/03/07 01:40:21;;;;;;;13.10;6.55;;;;;;;;;;2071285;28;20038;-81
2023/03/07 01:41:41;;;;;;;12.15;6.47;;;;;;;;;;2069911;28;20507;-83
2023/03/07 01:43:19;;;;;;;12.77;6.80;;;;;;;;;;2074968;28;20026;-81
2023/03/07 01:45:07;;;;;;;10.90;7.00;;;;;;;;;;2070829;28;20394;-82
2023/03/07 01:46:32;;;;;;;14.50;6.50;;;;;;;;;;2070578;28;20029;-82
2023/03/07 01:47:51;;;;;;;10.55;6.05;;;;;;;;;;2070417;28;20046;-81
2023/03/07 01:49:14;;;;;;;8.82;6.50;;;;;;;;;;2069888;28;20037;-81
2023/03/07 01:50:33;;;;;;;10.18;6.45;;;;;;;;;;2076519;28;20061;-80
2023/03/07 01:51:58;;;;;;;9.95;6.25;;;;;;;;;;2070682;28;20026;-80
2023/03/07 01:53:17;;;;;;;12.70;6.90;;;;;;;;;;2075222;28;20033;-82
2023/03/07 01:54:38;;;;;;;10.25;6.38;;;;;;;;;;2071823;28;20457;-81
2023/03/07 01:55:56;;;;;;;10.60;6.70;;;;;;;;;;2076303;28;20061;-84
2023/03/07 01:57:17;;;;;;;8.20;5.80;;;;;;;;;;2073380;28;20054;-82
2023/03/07 01:58:37;;;;;;;11.20;6.40;;;;;;;;;;2073733;28;20034;-80
2023/03/07 01:59:58;;;;;;;10.02;7.10;;;;;;;;;;2073128;28;20058;-80
2023/03/07 02:01:17;;;;;;;8.55;6.05;;;;;;;;;;2078935;28;20037;-80
2023/03/07 02:02:38;;;;;;;16.90;7.97;;;;;;;;;;2075946;28;20033;-81
2023/03/07 02:03:59;;;;;;;37.53;11.18;;;;;;;;;;2072792;28;20491;-82
2023/03/07 02:05:20;;;;;;;19.60;7.73;;;;;;;;;;2071526;28;20038;-81
2023/03/07 02:06:39;;;;;;;22.60;7.57;;;;;;;;;;2073949;28;20259;-81
2023/03/07 02:07:59;;;;;;;21.52;7.03;;;;;;;;;;2072597;28;20022;-82
2023/03/07 02:09:20;;;;;;;17.42;6.53;;;;;;;;;;2070520;28;20022;-81
2023/03/07 02:10:39;;;;;;;12.15;6.43;;;;;;;;;;2068484;28;20033;-83
2023/03/07 02:12:00;;;;;;;15.73;6.00;;;;;;;;;;2069858;28;20064;-80
2023/03/07 02:13:20;;;;;;;14.55;5.35;;;;;;;;;;2069886;28;20735;-81
2023/03/07 02:14:41;;;;;;;13.18;5.13;;;;;;;;;;2073294;28;20026;-81
2023/03/07 02:16:01;;;;;;;16.48;5.10;;;;;;;;;;2071405;28;20097;-80
2023/03/07 02:17:20;;;;;;;13.88;4.57;;;;;;;;;;2073942;28;20041;-80
2023/03/07 02:18:42;;;;;;;14.70;5.35;;;;;;;;;;2073487;28;20030;-80
2023/03/07 02:20:07;;;;;;;20.90;5.00;;;;;;;;;;2070960;28;20030;-81
2023/03/07 02:21:29;;;;;;;8.10;5.45;;;;;;;;;;2071111;28;20018;-84
2023/03/07 02:22:48;;;;;;;17.70;6.22;;;;;;;;;;2069537;28;20030;-83
2023/03/07 02:24:26;;;;;;;12.80;6.05;;;;;;;;;;2070107;28;20033;-81
2023/03/07 02:26:07;;;;;;;8.88;5.78;;;;;;;;;;2072012;28;20030;-81
2023/03/07 02:27:28;;;;;;;13.73;6.43;;;;;;;;;;2073143;28;20121;-80
2023/03/07 02:28:47;;;;;;;11.32;6.22;;;;;;;;;;2081328;28;20045;-81
2023/03/07 02:30:06;;;;;;;14.23;7.25;;;;;;;;;;2072442;28;20037;-83
2023/03/07 02:31:26;;;;;;;14.05;6.40;;;;;;;;;;2069484;28;20026;-80
2023/03/07 02:32:45;;;;;;;17.00;7.00;;;;;;;;;;2072359;28;20026;-81
2023/03/07 02:34:16;;;;;;;14.18;7.47;;;;;;;;;;2072240;28;20483;-80
2023/03/07 02:35:35;;;;;;;13.80;6.63;;;;;;;;;;2077945;28;20033;-82
2023/03/07 02:36:57;;;;;;;11.38;7.18;;;;;;;;;;2073468;28;20025;-80
2023/03/07 02:38:16;;;;;;;10.93;7.50;;;;;;;;;;2080821;28;20029;-81
2023/03/07 02:39:35;;;;;;;14.80;8.45;;;;;;;;;;2073282;28;20042;-80
2023/03/07 02:40:54;;;;;;;13.90;7.95;;;;;;;;;;2070176;28;20030;-81
2023/03/07 02:42:24;;;;;;;16.13;8.73;;;;;;;;;;2073541;28;20113;-80
2023/03/07 02:43:43;;;;;;;12.63;7.88;;;;;;;;;;2071648;28;20082;-81
2023/03/07 02:45:05;;;;;;;11.93;7.53;;;;;;;;;;2066905;28;20034;-82
2023/03/07 02:46:24;;;;;;;11.88;8.40;;;;;;;;;;2070449;28;20113;-79
2023/03/07 02:47:44;;;;;;;11.95;7.90;;;;;;;;;;2073814;28;20022;-80
2023/03/07 02:49:03;;;;;;;14.63;7.47;;;;;;;;;;2080732;28;20037;-83
2023/03/07 02:50:21;;;;;;;13.20;7.28;;;;;;;;;;2074788;28;20499;-80
2023/03/07 02:51:41;;;;;;;12.82;6.57;;;;;;;;;;2073749;28;20483;-80
2023/03/07 02:53:00;;;;;;;8.98;6.65;;;;;;;;;;2073031;28;20034;-80
2023/03/07 02:54:19;;;;;;;10.40;6.70;;;;;;;;;;2077765;28;20057;-82
2023/03/07 02:55:38;;;;;;;10.02;7.05;;;;;;;;;;2072283;28;20022;-80
2023/03/07 02:56:57;;;;;;;15.85;8.00;;;;;;;;;;2070547;28;20022;-79
2023/03/07 02:58:16;;;;;;;12.00;6.72;;;;;;;;;;2073302;28;20030;-80
2023/03/07 02:59:35;;;;;;;15.15;7.10;;;;;;;;;;2064800;28;20035;-80
2023/03/07 03:00:54;;;;;;;11.95;7.20;;;;;;;;;;2067424;28;20034;-80
2023/03/07 03:02:14;;;;;;;15.55;7.90;;;;;;;;;;2071495;28;20026;-82
2023/03/07 03:03:33;;;;;;;14.18;7.55;;;;;;;;;;2078106;28;20041;-85
2023/03/07 03:04:52;;;;;;;15.30;7.97;;;;;;;;;;2083177;28;20124;-83
2023/03/07 03:06:11;;;;;;;15.20;7.85;;;;;;;;;;2082280;28;20010;-86
2023/03/07 03:07:30;;;;;;;20.17;8.52;;;;;;;;;;2083370;28;20033;-85
2023/03/07 03:08:49;;;;;;;20.50;9.43;;;;;;;;;;2080700;28;20025;-82
2023/03/07 03:10:09;;;;;;;15.10;8.80;;;;;;;;;;2086957;28;20017;-85
2023/03/07 03:11:28;;;;;;;12.40;7.60;;;;;;;;;;2081075;28;20715;-81
2023/03/07 03:12:47;;;;;;;15.27;7.65;;;;;;;;;;2078398;28;20085;-82
2023/03/07 03:14:06;;;;;;;10.23;7.30;;;;;;;;;;2076625;28;20018;-84
2023/03/07 03:15:25;;;;;;;12.15;6.90;;;;;;;;;;2079868;28;20030;-81
2023/03/07 03:16:45;;;;;;;13.07;6.93;;;;;;;;;;2083384;28;20030;-82
2023/03/07 03:18:04;;;;;;;10.38;6.78;;;;;;;;;;2073625;28;20026;-81
2023/03/07 03:19:23;;;;;;;10.35;6.43;;;;;;;;;;2075313;28;20117;-79
2023/03/07 03:20:42;;;;;;;11.02;6.68;;;;;;;;;;2073661;28;20030;-80
2023/03/07 03:22:01;;;;;;;16.27;6.88;;;;;;;;;;2078319;28;20062;-80
2023/03/07 03:23:19;;;;;;;11.88;6.13;;;;;;;;;;2076880;28;20054;-81
2023/03/07 03:24:39;;;;;;;10.23;6.45;;;;;;;;;;2074963;28;20022;-85
2023/03/07 03:25:59;;;;;;;14.57;5.68;;;;;;;;;;2073914;28;20029;-82
2023/03/07 03:27:18;;;;;;;11.07;6.40;;;;;;;;;;2075194;28;20420;-81
2023/03/07 03:28:38;;;;;;;14.45;6.00;;;;;;;;;;2076065;28;20026;-81
2023/03/07 03:29:56;;;;;;;8.73;5.93;;;;;;;;;;2082624;28;20057;-81
2023/03/07 03:31:15;;;;;;;7.25;5.72;;;;;;;;;;2080126;28;20022;-80
2023/03/07 03:32:37;;;;;;;11.63;6.35;;;;;;;;;;2074505;28;20022;-81
2023/03/07 03:33:57;;;;;;;7.68;5.60;;;;;;;;;;2079026;28;20034;-81
2023/03/07 03:35:16;;;;;;;12.02;6.28;;;;;;;;;;2081357;28;20149;-81
2023/03/07 03:36:35;;;;;;;15.85;9.13;;;;;;;;;;2081545;28;20025;-80
2023/03/07 03:37:54;;;;;;;14.65;8.40;;;;;;;;;;2081413;28;20048;-80
2023/03/07 03:39:13;;;;;;;23.98;8.63;;;;;;;;;;2080772;28;20025;-84
2023/03/07 03:40:32;;;;;;;10.88;7.00;;;;;;;;;;2081232;28;20497;-81
2023/03/07 03:41:51;;;;;;;10.90;6.45;;;;;;;;;;2080656;28;20069;-80
2023/03/07 03:43:10;;;;;;;14.35;6.82;;;;;;;;;;2081726;28;20034;-82
2023/03/07 03:44:29;;;;;;;10.60;6.13;;;;;;;;;;2081016;28;20026;-80
2023/03/07 03:45:55;;;;;;;10.98;7.00;;;;;;;;;;2080644;28;20034;-82
2023/03/07 03:47:14;;;;;;;15.38;7.50;;;;;;;;;;2074233;28;20034;-81
2023/03/07 03:48:32;;;;;;;11.30;6.72;;;;;;;;;;2079843;28;20049;-80
2023/03/07 03:49:51;;;;;;;12.98;6.97;;;;;;;;;;2073510;28;20491;-83
2023/03/07 03:51:13;;;;;;;11.68;6.40;;;;;;;;;;2079058;28;20022;-80
2023/03/07 03:52:34;;;;;;;12.38;6.75;;;;;;;;;;2077912;28;20025;-80
2023/03/07 03:53:53;;;;;;;11.27;6.45;;;;;;;;;;2081768;28;20029;-81
2023/03/07 03:55:12;;;;;;;10.70;6.10;;;;;;;;;;2069851;28;20033;-84
2023/03/07 03:56:31;;;;;;;10.48;6.80;;;;;;;;;;2071216;28;20499;-81
2023/03/07 03:57:51;;;;;;;19.08;6.53;;;;;;;;;;2074178;28;20034;-80
2023/03/07 03:59:09;;;;;;;13.15;6.82;;;;;;;;;;2071906;28;20053;-80
2023/03/07 04:00:29;;;;;;;12.07;6.38;;;;;;;;;;2077819;28;20424;-80
2023/03/07 04:01:48;;;;;;;16.33;6.85;;;;;;;;;;2078713;28;20029;-80
2023/03/07 04:03:07;;;;;;;11.02;6.13;;;;;;;;;;2071455;28;20070;-81
2023/03/07 04:04:26;;;;;;;13.80;6.55;;;;;;;;;;2072334;28;20029;-80
2023/03/07 04:05:45;;;;;;;17.85;6.65;;;;;;;;;;2078852;28;20104;-85
2023/03/07 04:07:04;;;;;;;21.88;6.47;;;;;;;;;;2080171;28;20065;-82
2023/03/07 04:08:23;;;;;;;30.08;6.88;;;;;;;;;;2079216;28;20076;-80
2023/03/07 04:09:41;;;;;;;16.80;6.78;;;;;;;;;;2072130;28;20022;-80
2023/03/07 04:11:01;;;;;;;17.65;6.70;;;;;;;;;;2071649;28;20041;-81
2023/03/07 04:12:19;;;;;;;23.27;6.78;;;;;;;;;;2073509;28;20494;-81
2023/03/07 04:13:38;;;;;;;24.80;6.57;;;;;;;;;;2074815;28;20459;-81
2023/03/07 04:14:58;;;;;;;14.18;6.85;;;;;;;;;;2071317;28;20038;-80
2023/03/07 04:16:17;;;;;;;22.05;6.78;;;;;;;;;;2078463;28;20034;-81
2023/03/07 04:17:36;;;;;;;13.38;6.13;;;;;;;;;;2074471;28;20025;-80
2023/03/07 04:18:54;;;;;;;17.67;6.80;;;;;;;;;;2073129;28;20026;-80
2023/03/07 04:20:16;;;;;;;21.88;6.75;;;;;;;;;;2069815;28;21292;-81
2023/03/07 04:21:35;;;;;;;18.83;6.32;;;;;;;;;;2072401;28;20034;-80
2023/03/07 04:22:54;;;;;;;12.50;6.57;;;;;;;;;;2073426;28;20026;-80
2023/03/07 04:24:12;;;;;;;17.63;7.22;;;;;;;;;;2070198;28;20126;-80
2023/03/07 04:25:31;;;;;;;19.95;6.68;;;;;;;;;;2070885;28;20502;-79
2023/03/07 04:26:50;;;;;;;13.93;5.95;;;;;;;;;;2077926;28;20029;-81
2023/03/07 04:28:10;;;;;;;18.30;6.70;;;;;;;;;;2079311;28;20030;-79
2023/03/07 04:29:29;;;;;;;15.30;6.78;;;;;;;;;;2079540;28;20045;-80
2023/03/07 04:30:48;;;;;;;12.98;5.80;;;;;;;;;;2072696;28;20027;-79
2023/03/07 04:32:07;;;;;;;14.15;5.97;;;;;;;;;;2071828;28;20077;-82
2023/03/07 04:33:26;;;;;;;19.83;6.65;;;;;;;;;;2076570;28;20069;-81
2023/03/07 04:34:45;;;;;;;14.02;6.03;;;;;;;;;;2081130;28;20026;-81
2023/03/07 04:36:04;;;;;;;11.55;6.10;;;;;;;;;;2079339;28;20030;-79
2023/03/07 04:37:23;;;;;;;12.70;6.63;;;;;;;;;;2076448;28;20062;-80
2023/03/07 04:38:42;;;;;;;11.02;6.13;;;;;;;;;;2068555;28;20034;-81
2023/03/07 04:40:01;;;;;;;20.25;6.70;;;;;;;;;;2071088;28;20030;-79
2023/03/07 04:41:21;;;;;;;15.55;7.00;;;;;;;;;;2067877;28;20022;-80
2023/03/07 04:42:40;;;;;;;14.70;6.47;;;;;;;;;;2077405;28;20386;-79
2023/03/07 04:43:59;;;;;;;12.82;7.25;;;;;;;;;;2080619;28;20021;-80
2023/03/07 04:45:18;;;;;;;9.90;5.95;;;;;;;;;;2077588;28;20143;-80
2023/03/07 04:46:37;;;;;;;10.65;5.78;;;;;;;;;;2074605;28;20551;-79
2023/03/07 04:47:56;;;;;;;10.18;5.80;;;;;;;;;;2069888;28;20018;-80
2023/03/07 04:49:15;;;;;;;14.90;6.45;;;;;;;;;;2065787;28;20063;-80
2023/03/07 04:50:34;;;;;;;12.40;6.45;;;;;;;;;;2076529;28;20138;-79
2023/03/07 04:51:53;;;;;;;8.68;5.70;;;;;;;;;;2081338;28;20490;-79
2023/03/07 04:53:12;;;;;;;8.98;6.28;;;;;;;;;;2073706;28;20104;-79
2023/03/07 04:54:31;;;;;;;17.08;8.00;;;;;;;;;;2077574;28;20033;-80
2023/03/07 04:55:50;;;;;;;14.57;8.40;;;;;;;;;;2082330;28;20029;-80
2023/03/07 04:57:09;;;;;;;12.32;6.57;;;;;;;;;;2081306;28;20021;-80
2023/03/07 04:58:29;;;;;;;11.35;6.85;;;;;;;;;;2078969;28;20415;-80
2023/03/07 04:59:48;;;;;;;16.42;7.18;;;;;;;;;;2071865;28;20030;-79
2023/03/07 05:01:07;;;;;;;12.65;6.00;;;;;;;;;;2071163;28;20030;-80
2023/03/07 05:02:26;;;;;;;10.20;6.28;;;;;;;;;;2062789;28;20038;-80
2023/03/07 05:03:45;;;;;;;19.98;7.50;;;;;;;;;;2074807;28;20140;-79
2023/03/07 05:05:04;;;;;;;12.80;6.57;;;;;;;;;;2074489;28;20402;-80
2023/03/07 05:06:23;;;;;;;11.80;7.65;;;;;;;;;;2070942;28;20026;-80
2023/03/07 05:07:42;;;;;;;12.65;7.25;;;;;;;;;;2074286;28;20030;-82
2023/03/07 05:09:02;;;;;;;16.35;7.95;;;;;;;;;;2070350;28;20042;-80
2023/03/07 05:10:21;;;;;;;15.57;8.35;;;;;;;;;;2079364;28;20490;-79
2023/03/07 05:11:40;;;;;;;12.98;7.53;;;;;;;;;;2074368;28;20026;-79
2023/03/07 05:12:59;;;;;;;17.23;9.07;;;;;;;;;;2068838;28;20029;-79
2023/03/07 05:14:19;;;;;;;15.40;9.00;;;;;;;;;;2076777;28;20667;-80
2023/03/07 05:15:37;;;;;;;16.48;8.60;;;;;;;;;;2072251;28;20454;-80
2023/03/07 05:16:56;;;;;;;13.45;8.15;;;;;;;;;;2072402;28;20030;-80
2023/03/07 05:18:15;;;;;;;14.68;8.93;;;;;;;;;;2071975;28;20038;-80
2023/03/07 05:19:34;;;;;;;17.05;8.45;;;;;;;;;;2073648;28;20499;-80
2023/03/07 05:20:54;;;;;;;20.75;9.65;;;;;;;;;;2070085;28;20513;-80
2023/03/07 05:22:13;;;;;;;14.25;8.55;;;;;;;;;;2068885;28;20038;-82
2023/03/07 05:23:32;;;;;;;16.75;9.07;;;;;;;;;;2079143;28;20025;-80
2023/03/07 05:24:51;;;;;;;17.45;9.13;;;;;;;;;;2076475;28;20029;-82
2023/03/07 05:26:12;;;;;;;11.43;7.57;;;;;;;;;;2072134;28;20438;-79
2023/03/07 05:27:32;;;;;;;12.57;7.78;;;;;;;;;;2077633;28;20053;-79
2023/03/07 05:28:51;;;;;;;15.98;8.65;;;;;;;;;;2072970;28;20046;-78
2023/03/07 05:30:10;;;;;;;13.27;8.52;;;;;;;;;;2069820;28;20037;-79
2023/03/07 05:31:29;;;;;;;13.43;8.13;;;;;;;;;;2076172;28;20029;-79
2023/03/07 05:32:50;;;;;;;18.30;8.50;;;;;;;;;;2071582;28;20030;-79
2023/03/07 05:34:09;;;;;;;20.02;8.23;;;;;;;;;;2070853;28;20023;-79
2023/03/07 05:35:28;;;;;;;18.95;8.27;;;;;;;;;;2070321;28;20116;-79
2023/03/07 05:36:48;;;;;;;18.00;8.20;;;;;;;;;;2072187;28;20026;-78
2023/03/07 05:38:07;;;;;;;13.80;7.28;;;;;;;;;;2068332;28;20033;-80
2023/03/07 05:39:27;;;;;;;16.33;8.43;;;;;;;;;;2067602;28;20017;-80
2023/03/07 05:40:46;;;;;;;12.43;6.90;;;;;;;;;;2072499;28;20045;-80
2023/03/07 05:42:05;;;;;;;11.85;6.90;;;;;;;;;;2072086;28;20046;-80
2023/03/07 05:43:24;;;;;;;10.55;6.00;;;;;;;;;;2079195;28;20037;-83
2023/03/07 05:44:43;;;;;;;11.82;5.70;;;;;;;;;;2079180;28;20502;-81
2023/03/07 05:46:02;;;;;;;14.32;6.03;;;;;;;;;;2071711;28;20061;-79
2023/03/07 05:47:22;;;;;;;9.82;6.03;;;;;;;;;;2068914;28;20499;-79
2023/03/07 05:48:40;;;;;;;10.07;5.78;;;;;;;;;;2068535;28;20034;-80
2023/03/07 05:49:59;;;;;;;9.18;5.35;;;;;;;;;;2071680;28;20555;-80
2023/03/07 05:51:18;;;;;;;12.50;5.55;;;;;;;;;;2072421;28;20030;-80
2023/03/07 05:52:37;;;;;;;13.10;5.72;;;;;;;;;;2077885;28;20029;-81
2023/03/07 05:53:56;;;;;;;14.93;6.82;;;;;;;;;;2075638;28;20034;-79
2023/03/07 05:55:15;;;;;;;12.30;6.05;;;;;;;;;;2078946;28;20038;-79
2023/03/07 05:56:34;;;;;;;12.23;7.25;;;;;;;;;;2070838;28;20034;-79
2023/03/07 05:57:53;;;;;;;11.52;7.43;;;;;;;;;;2073357;28;20022;-81
2023/03/07 05:59:14;;;;;;;10.95;7.53;;;;;;;;;;2073742;28;20284;-79
2023/03/07 06:00:33;;;;;;;14.95;7.78;;;;;;;;;;2078179;28;20041;-80
2023/03/07 06:01:52;;;;;;;13.52;8.20;;;;;;;;;;2071623;28;20038;-82
2023/03/07 06:03:11;;;;;;;19.38;7.55;;;;;;;;;;2071433;28;20022;-80
2023/03/07 06:04:30;;;;;;;13.45;7.20;;;;;;;;;;2071965;28;20022;-80
2023/03/07 06:05:49;;;;;;;19.50;7.78;;;;;;;;;;2078613;28;20522;-79
2023/03/07 06:07:08;;;;;;;14.90;7.82;;;;;;;;;;2069268;28;20026;-81
2023/03/07 06:08:27;;;;;;;21.65;7.20;;;;;;;;;;2067700;28;20081;-80
2023/03/07 06:09:46;;;;;;;18.20;6.95;;;;;;;;;;2066671;28;20531;-81
2023/03/07 06:11:05;;;;;;;17.08;7.78;;;;;;;;;;2067319;28;20042;-80
2023/03/07 06:12:23;;;;;;;14.18;7.05;;;;;;;;;;2067786;28;20045;-81
2023/03/07 06:13:43;;;;;;;14.05;6.47;;;;;;;;;;2070755;28;20030;-81
2023/03/07 06:15:02;;;;;;;12.27;6.10;;;;;;;;;;2073699;28;20487;-84
2023/03/07 06:16:21;;;;;;;15.80;5.65;;;;;;;;;;2071480;28;20026;-79
2023/03/07 06:17:40;;;;;;;14.13;5.75;;;;;;;;;;2072199;28;20058;-81
2023/03/07 06:19:01;;;;;;;11.00;5.90;;;;;;;;;;2076152;28;21075;-80
2023/03/07 06:20:19;;;;;;;10.38;5.75;;;;;;;;;;2070924;28;20018;-78
2023/03/07 06:21:38;;;;;;;13.57;5.93;;;;;;;;;;2065817;28;20026;-79
2023/03/07 06:22:59;;;;;;;14.18;5.13;;;;;;;;;;2072785;28;20554;-79
2023/03/07 06:24:18;;;;;;;16.70;5.13;;;;;;;;;;2071673;28;20034;-80
2023/03/07 06:25:36;;;;;;;15.43;6.22;;;;;;;;;;2068541;28;20022;-79
2023/03/07 06:26:55;;;;;;;19.95;6.03;;;;;;;;;;2070278;28;20949;-79
2023/03/07 06:28:15;;;;;;;17.20;5.85;;;;;;;;;;2071553;28;20045;-81
2023/03/07 06:29:33;;;;;;;14.50;6.30;;;;;;;;;;2075098;28;20049;-80
2023/03/07 06:30:53;;;;;;;18.33;6.35;;;;;;;;;;2076139;28;20033;-81
2023/03/07 06:32:13;;;;;;;19.63;5.90;;;;;;;;;;2068263;28;20088;-80
2023/03/07 06:33:32;;;;;;;16.48;5.85;;;;;;;;;;2071730;28;20038;-79
2023/03/07 06:34:51;;;;;;;14.55;5.93;;;;;;;;;;2067258;28;20018;-80
2023/03/07 06:36:12;;;;;;;12.95;6.03;;;;;;;;;;2067886;28;20034;-79
2023/03/07 06:37:30;;;;;;;18.30;5.25;;;;;;;;;;2067124;28;20050;-82
2023/03/07 06:38:51;;;;;;;16.02;5.93;;;;;;;;;;2066791;28;20527;-79
2023/03/07 06:40:11;;;;;;;15.90;5.82;;;;;;;;;;2068251;28;20030;-79
2023/03/07 06:41:30;;;;;;;9.15;4.93;;;;;;;;;;2071604;28;20543;-79
2023/03/07 06:42:50;;;;;;;9.73;4.63;;;;;;;;;;2078148;28;20026;-79
2023/03/07 06:44:10;;;;;;;13.77;4.90;;;;;;;;;;2062218;28;20109;-81
2023/03/07 06:45:29;;;;;;;13.18;4.63;;;;;;;;;;2063686;28;20026;-80
2023/03/07 06:46:48;;;;;;;10.27;4.88;;;;;;;;;;2069404;28;20030;-81
2023/03/07 06:48:07;;;;;;;15.63;5.43;;;;;;;;;;2065848;28;20105;-81
2023/03/07 06:49:26;;;;;;;13.38;4.97;;;;;;;;;;2072762;28;20026;-80
2023/03/07 06:50:45;;;;;;;15.27;5.35;;;;;;;;;;2070563;28;20069;-81
2023/03/07 06:52:05;;;;;;;9.48;4.00;;;;;;;;;;2067400;28;20022;-80
2023/03/07 06:53:24;;;;;;;12.98;4.18;;;;;;;;;;2070863;28;20680;-79
2023/03/07 06:54:43;;;;;;;16.52;5.32;;;;;;;;;;2072839;28;20022;-79
2023/03/07 06:56:03;;;;;;;9.80;3.78;;;;;;;;;;2073578;28;20442;-80
2023/03/07 06:57:22;;;;;;;11.63;5.07;;;;;;;;;;2077615;28;20049;-80
2023/03/07 06:58:41;;;;;;;6.15;3.72;;;;;;;;;;2071349;28;20081;-80
2023/03/07 07:00:00;;;;;;;8.63;4.10;;;;;;;;;;2075321;28;20522;-83
2023/03/07 07:01:21;;;;;;;5.47;3.70;;;;;;;;;;2074732;28;20037;-81
2023/03/07 07:02:40;;;;;;;7.75;3.90;;;;;;;;;;2069696;28;20026;-80
2023/03/07 07:03:59;;;;;;;10.70;4.18;;;;;;;;;;2078054;28;20025;-80
2023/03/07 07:05:18;;;;;;;13.10;4.10;;;;;;;;;;2072103;28;21037;-80
2023/03/07 07:06:37;;;;;;;17.83;3.67;;;;;;;;;;2073595;28;20024;-80
2023/03/07 07:07:56;;;;;;;6.20;3.50;;;;;;;;;;2073752;28;20025;-81
2023/03/07 07:09:15;;;;;;;11.43;3.35;;;;;;;;;;2073774;28;20026;-79
2023/03/07 07:10:36;;;;;;;13.95;3.40;;;;;;;;;;2072729;28;20026;-80
2023/03/07 07:11:55;;;;;;;8.32;3.55;;;;;;;;;;2073421;28;20511;-80
2023/03/07 07:13:14;;;;;;;9.73;3.55;;;;;;;;;;2077451;28;20116;-79
2023/03/07 07:14:33;;;;;;;12.07;3.28;;;;;;;;;;2074911;28;20026;-80
2023/03/07 07:15:52;;;;;;;14.75;3.40;;;;;;;;;;2069969;28;20038;-80
2023/03/07 07:17:11;;;;;;;15.52;3.35;;;;;;;;;;2078083;28;20014;-82
2023/03/07 07:18:30;;;;;;;6.07;3.05;;;;;;;;;;2082936;28;20081;-83
2023/03/07 07:19:49;;;;;;;13.50;2.70;;;;;;;;;;2080613;28;20026;-80
2023/03/07 07:21:08;;;;;;;9.15;2.30;;;;;;;;;;2082029;28;20030;-83
2023/03/07 07:22:27;;;;;;;7.53;2.28;;;;;;;;;;2090231;28;20009;-80
2023/03/07 07:23:46;;;;;;;13.00;2.15;;;;;;;;;;2081317;28;20065;-80
2023/03/07 07:25:05;;;;;;;5.43;2.50;;;;;;;;;;2077953;28;20116;-80
2023/03/07 07:26:25;;;;;;;7.28;2.08;;;;;;;;;;2076702;28;20026;-81
2023/03/07 07:27:44;;;;;;;4.40;2.10;;;;;;;;;;2076389;28;20026;-81
2023/03/07 07:29:04;;;;;;;8.52;2.20;;;;;;;;;;2070651;28;20043;-80
2023/03/07 07:30:24;;;;;;;8.00;2.58;;;;;;;;;;2069060;28;20046;-81
2023/03/07 07:31:43;;;;;;;6.95;2.22;;;;;;;;;;2067622;28;20328;-78
2023/03/07 07:33:02;;;;;;;5.35;1.70;;;;;;;;;;2061219;28;20030;-81
2023/03/07 07:34:21;;;;;;;4.43;1.92;;;;;;;;;;2061116;28;20466;-81
2023/03/07 07:35:41;;;;;;;2.40;1.85;;;;;;;;;;2063005;28;20030;-80
2023/03/07 07:37:00;;;;;;;6.82;2.13;;;;;;;;;;2064421;28;20500;-82
2023/03/07 07:38:19;;;;;;;13.95;2.20;;;;;;;;;;2063170;28;20038;-81
2023/03/07 07:39:42;;;;;;;2.80;1.70;;;;;;;;;;2064045;28;20034;-82
2023/03/07 07:41:01;;;;;;;6.20;2.03;;;;;;;;;;2066684;28;20497;-80
2023/03/07 07:42:20;;;;;;;3.65;2.30;;;;;;;;;;2061631;28;20038;-81
2023/03/07 07:43:40;;;;;;;6.13;1.88;;;;;;;;;;2064607;28;20023;-82
2023/03/07 07:45:00;;;;;;;8.82;1.83;;;;;;;;;;2063164;28;20038;-80
2023/03/07 07:46:19;;;;;;;6.40;2.03;;;;;;;;;;2063865;28;20026;-79
2023/03/07 07:47:37;;;;;;;2.80;1.98;;;;;;;;;;2055035;28;20035;-80
2023/03/07 07:48:56;;;;;;;2.70;1.60;;;;;;;;;;2066249;28;20030;-80
2023/03/07 07:50:16;;;;;;;5.57;1.60;;;;;;;;;;2062085;28;20035;-80
2023/03/07 07:51:35;;;;;;;3.05;1.70;;;;;;;;;;2061599;28;20030;-81
2023/03/07 07:52:57;;;;;;;8.52;2.10;;;;;;;;;;2059998;28;20436;-81